createdAt,value
2023-03-22T00:02:26.460Z,9.20
2023-03-22T00:04:53.869Z,8.55
2023-03-22T00:07:20.656Z,10.45
2023-03-22T00:09:47.446Z,11.05
2023-03-22T00:12:14.360Z,10.85
2023-03-22T00:14:41.447Z,11.60
2023-03-22T00:17:08.292Z,11.60
2023-03-22T00:19:35.086Z,13.20
2023-03-22T00:22:03.643Z,10.90
2023-03-22T00:24:30.516Z,8.85
2023-03-22T00:26:58.605Z,10.95
2023-03-22T00:29:25.525Z,10.43
2023-03-22T00:31:54.442Z,9.15
2023-03-22T00:34:21.260Z,9.20
2023-03-22T00:36:48.521Z,6.80
2023-03-22T00:39:15.789Z,6.45
2023-03-22T00:41:42.896Z,6.32
2023-03-22T00:44:09.712Z,7.55
2023-03-22T00:46:37.520Z,6.00
2023-03-22T00:49:04.621Z,6.60
2023-03-22T00:51:31.410Z,7.22
2023-03-22T00:53:58.274Z,6.25
2023-03-22T00:56:28.659Z,6.47
2023-03-22T00:58:55.612Z,5.90
2023-03-22T01:01:22.603Z,5.57
2023-03-22T01:03:50.793Z,5.45
2023-03-22T01:06:18.172Z,6.38
2023-03-22T01:08:44.937Z,6.35
2023-03-22T01:11:11.920Z,5.75
2023-03-22T01:13:39.390Z,6.47
2023-03-22T01:16:07.037Z,6.25
2023-03-22T01:18:34.266Z,6.35
2023-03-22T01:21:01.300Z,6.80
2023-03-22T01:23:28.612Z,7.25
2023-03-22T01:25:55.430Z,7.10
2023-03-22T01:28:22.218Z,7.03
2023-03-22T01:30:50.071Z,6.25
2023-03-22T01:33:17.041Z,6.18
2023-03-22T01:35:43.890Z,6.93
2023-03-22T01:38:10.854Z,6.10
2023-03-22T01:40:38.771Z,6.00
2023-03-22T01:43:13.278Z,5.88
2023-03-22T01:45:43.222Z,6.20
2023-03-22T01:48:23.461Z,7.25
2023-03-22T01:51:02.967Z,6.50
2023-03-22T01:53:33.291Z,6.65
2023-03-22T01:56:03.954Z,6.47
2023-03-22T01:58:32.329Z,7.10
2023-03-22T02:00:59.598Z,6.55
2023-03-22T02:03:36.885Z,6.70
2023-03-22T02:06:04.039Z,6.32
2023-03-22T02:08:32.283Z,6.68
2023-03-22T02:11:00.320Z,6.68
2023-03-22T02:13:56.108Z,5.90
2023-03-22T02:16:46.295Z,6.22
2023-03-22T02:19:51.973Z,5.97
2023-03-22T02:22:28.184Z,6.05
2023-03-22T02:25:27.555Z,6.00
2023-03-22T02:28:09.810Z,6.53
2023-03-22T02:30:45.732Z,6.40
2023-03-22T02:33:16.259Z,7.82
2023-03-22T02:36:30.893Z,7.07
2023-03-22T02:39:06.832Z,6.32
2023-03-22T02:41:55.378Z,7.03
2023-03-22T02:44:47.153Z,6.50
2023-03-22T02:47:17.210Z,6.13
2023-03-22T02:49:52.436Z,6.80
2023-03-22T02:52:39.398Z,6.10
2023-03-22T02:55:22.113Z,6.57
2023-03-22T02:57:54.299Z,5.88
2023-03-22T03:00:21.104Z,6.50
2023-03-22T03:02:53.861Z,6.10
2023-03-22T03:05:22.253Z,6.25
2023-03-22T03:07:55.855Z,6.65
2023-03-22T03:10:23.814Z,7.07
2023-03-22T03:12:50.620Z,6.88
2023-03-22T03:15:19.854Z,6.43
2023-03-22T03:17:49.656Z,6.88
2023-03-22T03:20:30.275Z,5.97
2023-03-22T03:23:39.959Z,5.63
2023-03-22T03:26:13.581Z,5.97
2023-03-22T03:29:09.868Z,6.32
2023-03-22T03:31:49.417Z,6.93
2023-03-22T03:34:20.268Z,7.50
2023-03-22T03:37:02.951Z,7.43
2023-03-22T03:39:35.733Z,7.93
2023-03-22T03:42:04.833Z,7.88
2023-03-22T03:44:32.659Z,7.18
2023-03-22T03:47:02.182Z,6.80
2023-03-22T03:49:29.148Z,6.90
2023-03-22T03:51:56.445Z,6.70
2023-03-22T03:54:23.601Z,6.75
2023-03-22T03:56:50.950Z,6.03
2023-03-22T03:59:18.898Z,7.18
2023-03-22T04:01:50.352Z,7.47
2023-03-22T04:04:26.669Z,7.70
2023-03-22T04:07:02.106Z,7.72
2023-03-22T04:09:31.913Z,7.90
2023-03-22T04:11:59.099Z,8.48
2023-03-22T04:14:26.553Z,9.20
2023-03-22T04:16:55.681Z,8.75
2023-03-22T04:19:23.190Z,8.43
2023-03-22T04:21:50.016Z,9.70
2023-03-22T04:24:16.843Z,8.50
2023-03-22T04:26:43.716Z,10.07
2023-03-22T04:29:10.544Z,9.50
2023-03-22T04:31:37.737Z,11.80
2023-03-22T04:34:05.773Z,10.65
2023-03-22T04:36:36.594Z,9.60
2023-03-22T04:39:06.019Z,9.40
2023-03-22T04:41:33.975Z,10.23
2023-03-22T04:44:03.320Z,12.00
2023-03-22T04:46:31.899Z,11.20
2023-03-22T04:48:58.905Z,10.63
2023-03-22T04:51:27.666Z,8.45
2023-03-22T04:53:54.660Z,8.20
2023-03-22T04:56:22.212Z,8.65
2023-03-22T04:58:49.015Z,9.93
2023-03-22T05:01:18.008Z,9.85
2023-03-22T05:03:47.367Z,11.40
2023-03-22T05:06:15.290Z,11.40
2023-03-22T05:08:42.124Z,10.45
2023-03-22T05:11:12.549Z,10.60
2023-03-22T05:13:40.245Z,10.70
2023-03-22T05:16:08.116Z,9.82
2023-03-22T05:18:38.030Z,12.73
2023-03-22T05:21:06.829Z,11.82
2023-03-22T05:23:33.629Z,12.05
2023-03-22T05:26:01.922Z,11.85
2023-03-22T05:28:28.847Z,11.90
2023-03-22T05:30:57.227Z,11.90
2023-03-22T05:33:24.250Z,12.25
2023-03-22T05:35:51.897Z,11.77
2023-03-22T05:38:18.750Z,12.33
2023-03-22T05:40:46.392Z,12.30
2023-03-22T05:43:13.532Z,10.60
2023-03-22T05:45:40.380Z,11.10
2023-03-22T05:48:07.575Z,10.60
2023-03-22T05:50:35.383Z,10.77
2023-03-22T05:53:03.467Z,10.80
2023-03-22T05:55:32.128Z,10.50
2023-03-22T05:58:01.393Z,9.57
2023-03-22T06:00:32.167Z,10.00
2023-03-22T06:03:03.509Z,10.10
2023-03-22T06:05:31.946Z,10.10
2023-03-22T06:07:59.182Z,9.90
2023-03-22T06:10:27.192Z,10.90
2023-03-22T06:12:54.289Z,10.10
2023-03-22T06:15:21.448Z,10.47
2023-03-22T06:17:48.630Z,10.00
2023-03-22T06:20:15.683Z,10.50
2023-03-22T06:22:42.881Z,9.90
2023-03-22T06:25:10.658Z,8.83
2023-03-22T06:27:37.939Z,8.90
2023-03-22T06:30:06.012Z,8.63
2023-03-22T06:32:32.863Z,8.43
2023-03-22T06:34:59.606Z,8.60
2023-03-22T06:37:26.429Z,8.93
2023-03-22T06:39:53.270Z,9.27
2023-03-22T06:42:20.329Z,7.30
2023-03-22T06:44:47.164Z,7.90
2023-03-22T06:47:14.166Z,8.33
2023-03-22T06:49:41.032Z,8.20
2023-03-22T06:52:07.898Z,7.70
2023-03-22T06:54:34.981Z,7.67
2023-03-22T06:57:01.844Z,6.30
2023-03-22T06:59:28.879Z,7.20
2023-03-22T07:01:55.844Z,7.17
2023-03-22T07:04:22.925Z,6.67
2023-03-22T07:06:49.727Z,6.47
2023-03-22T07:09:16.980Z,6.40
2023-03-22T07:11:44.000Z,5.97
2023-03-22T07:14:11.086Z,10.00
2023-03-22T07:16:37.859Z,7.20
2023-03-22T07:19:04.699Z,5.90
2023-03-22T07:21:31.602Z,5.43
2023-03-22T07:23:58.412Z,6.20
2023-03-22T07:26:26.318Z,6.00
2023-03-22T07:28:53.770Z,6.57
2023-03-22T07:31:21.412Z,6.33
2023-03-22T07:33:48.444Z,5.97
2023-03-22T07:36:15.624Z,5.07
2023-03-22T07:38:42.552Z,5.50
2023-03-22T07:41:09.491Z,5.27
2023-03-22T07:43:50.857Z,4.97
2023-03-22T07:46:20.189Z,4.33
2023-03-22T07:48:47.060Z,4.93
2023-03-22T07:51:13.994Z,4.63
2023-03-22T07:53:40.817Z,4.33
2023-03-22T07:56:08.134Z,5.50
2023-03-22T07:58:35.539Z,4.40
2023-03-22T08:01:09.063Z,4.53
2023-03-22T08:03:36.764Z,4.93
2023-03-22T08:06:07.658Z,3.97
2023-03-22T08:08:36.934Z,4.47
2023-03-22T08:11:05.642Z,4.50
2023-03-22T08:13:32.767Z,3.40
2023-03-22T08:16:00.892Z,4.47
2023-03-22T08:18:27.767Z,3.80
2023-03-22T08:20:59.535Z,4.07
2023-03-22T08:23:40.566Z,3.47
2023-03-22T08:26:09.212Z,3.20
2023-03-22T08:28:36.318Z,3.40
2023-03-22T08:31:13.241Z,2.63
2023-03-22T08:33:41.082Z,3.20
2023-03-22T08:36:10.730Z,2.93
2023-03-22T08:38:37.765Z,2.87
2023-03-22T08:41:04.785Z,3.70
2023-03-22T08:43:31.610Z,2.53
2023-03-22T08:45:58.967Z,2.80
2023-03-22T08:48:29.091Z,3.57
2023-03-22T08:50:56.112Z,4.20
2023-03-22T08:53:23.314Z,2.43
2023-03-22T08:55:51.020Z,3.13
2023-03-22T08:58:20.072Z,2.43
2023-03-22T09:00:49.405Z,2.50
2023-03-22T09:03:17.117Z,2.60
2023-03-22T09:05:44.344Z,2.20
2023-03-22T09:08:18.592Z,1.87
2023-03-22T09:10:52.034Z,2.97
2023-03-22T09:13:20.413Z,1.63
2023-03-22T09:15:47.704Z,2.20
2023-03-22T09:18:15.300Z,2.90
2023-03-22T09:20:43.783Z,2.07
2023-03-22T09:23:10.639Z,1.70
2023-03-22T09:25:37.804Z,1.63
2023-03-22T09:28:05.489Z,2.37
2023-03-22T09:30:32.292Z,2.77
2023-03-22T09:32:59.080Z,1.70
2023-03-22T09:35:26.040Z,1.40
2023-03-22T09:37:54.667Z,1.80
2023-03-22T09:40:25.410Z,1.43
2023-03-22T09:42:55.662Z,1.37
2023-03-22T09:45:32.951Z,2.20
2023-03-22T09:48:00.543Z,1.40
2023-03-22T09:50:31.344Z,1.83
2023-03-22T09:52:59.308Z,1.30
2023-03-22T09:55:43.480Z,1.93
2023-03-22T09:58:32.072Z,1.40
2023-03-22T10:01:06.723Z,1.43
2023-03-22T10:03:59.927Z,1.30
2023-03-22T10:06:29.450Z,2.20
2023-03-22T10:09:19.504Z,1.80
2023-03-22T10:11:55.841Z,1.57
2023-03-22T10:14:47.942Z,1.73
2023-03-22T10:17:27.100Z,1.40
2023-03-22T10:20:09.081Z,1.47
2023-03-22T10:22:42.768Z,1.07
2023-03-22T10:25:12.213Z,1.60
2023-03-22T10:27:39.035Z,1.10
2023-03-22T10:30:23.051Z,1.60
2023-03-22T10:33:04.725Z,1.40
2023-03-22T10:35:32.253Z,1.07
2023-03-22T10:38:03.646Z,1.33
2023-03-22T10:40:33.474Z,1.20
2023-03-22T10:43:06.172Z,1.47
2023-03-22T10:45:35.113Z,1.27
2023-03-22T10:48:16.276Z,1.77
2023-03-22T10:50:48.720Z,1.60
2023-03-22T10:53:44.143Z,1.40
2023-03-22T10:56:20.125Z,1.30
2023-03-22T10:58:49.445Z,1.20
2023-03-22T11:01:33.060Z,1.30
2023-03-22T11:04:10.752Z,1.40
2023-03-22T11:06:54.725Z,1.40
2023-03-22T11:09:24.510Z,1.40
2023-03-22T11:11:57.736Z,1.27
2023-03-22T11:14:35.406Z,1.20
2023-03-22T11:17:08.611Z,2.50
2023-03-22T11:19:38.216Z,1.30
2023-03-22T11:22:25.635Z,1.60
2023-03-22T11:24:55.151Z,1.30
2023-03-22T11:27:24.357Z,1.50
2023-03-22T11:29:53.716Z,2.00
2023-03-22T11:32:35.535Z,2.60
2023-03-22T11:35:22.092Z,1.43
2023-03-22T11:37:52.050Z,1.13
2023-03-22T11:40:29.167Z,1.23
2023-03-22T11:43:07.124Z,1.47
2023-03-22T11:45:37.606Z,1.13
2023-03-22T11:48:14.261Z,1.10
2023-03-22T11:50:45.881Z,1.17
2023-03-22T11:53:18.308Z,1.47
2023-03-22T11:55:47.562Z,0.97
2023-03-22T11:58:43.752Z,1.20
2023-03-22T12:01:16.729Z,1.30
2023-03-22T12:03:47.084Z,1.50
2023-03-22T12:06:22.932Z,1.37
2023-03-22T12:08:55.319Z,1.53
2023-03-22T12:11:31.922Z,1.23
2023-03-22T12:14:00.593Z,1.30
2023-03-22T12:16:32.144Z,1.33
2023-03-22T12:19:08.273Z,1.43
2023-03-22T12:21:35.430Z,1.20
2023-03-22T12:24:03.848Z,1.87
2023-03-22T12:26:33.372Z,1.17
2023-03-22T12:29:16.788Z,1.87
2023-03-22T12:32:09.943Z,1.23
2023-03-22T12:34:42.023Z,2.60
2023-03-22T12:37:15.024Z,1.30
2023-03-22T12:40:14.770Z,1.50
2023-03-22T12:42:51.851Z,1.00
2023-03-22T12:45:26.315Z,1.27
2023-03-22T12:48:05.542Z,1.10
2023-03-22T12:50:51.442Z,1.20
2023-03-22T12:53:20.449Z,1.27
2023-03-22T12:55:48.507Z,1.30
2023-03-22T12:58:21.203Z,1.57
2023-03-22T13:00:58.711Z,2.10
2023-03-22T13:03:28.801Z,1.57
2023-03-22T13:06:27.379Z,2.00
2023-03-22T13:09:16.137Z,1.10
2023-03-22T13:11:45.700Z,1.40
2023-03-22T13:14:39.787Z,1.40
2023-03-22T13:17:07.731Z,2.57
2023-03-22T13:19:37.661Z,1.87
2023-03-22T13:22:21.140Z,1.50
2023-03-22T13:25:23.657Z,1.17
2023-03-22T13:27:52.707Z,1.60
2023-03-22T13:30:33.289Z,1.30
2023-03-22T13:33:08.854Z,1.40
2023-03-22T13:35:42.723Z,1.60
2023-03-22T13:38:26.232Z,1.30
2023-03-22T13:40:56.523Z,1.20
2023-03-22T13:43:32.041Z,1.40
2023-03-22T13:46:01.910Z,1.33
2023-03-22T13:48:50.705Z,1.50
2023-03-22T13:51:26.467Z,1.40
2023-03-22T13:54:12.632Z,1.80
2023-03-22T13:56:43.051Z,1.40
2023-03-22T13:59:29.995Z,1.30
2023-03-22T14:02:18.701Z,1.40
2023-03-22T14:04:56.413Z,1.63
2023-03-22T14:07:37.576Z,1.40
2023-03-22T14:10:18.387Z,1.70
2023-03-22T14:12:58.236Z,1.40
2023-03-22T14:15:31.510Z,1.30
2023-03-22T14:18:08.177Z,2.20
2023-03-22T14:20:37.578Z,1.73
